Time;durP1;ratioP1;P1;durP2;ratioP2;P2;SDS_P1;SDS_P2;PMS_P1;PMS_P2;Temp;Humidity;BMP_temperature;BMP_pressure;BME280_temperature;BME280_humidity;BME280_pressure;Samples;Min_cycle;Max_cycle;Signal;HPM_P1;HPM_P2
2022/07/28 00:01:33;;;;;;;6.13;1.73;;;13.20;62.80;;;;;;5032406;28;20032;-72
2022/07/28 00:03:59;;;;;;;5.30;1.58;;;13.30;62.80;;;;;;5032440;28;20507;-71
2022/07/28 00:06:25;;;;;;;5.90;1.38;;;13.30;62.80;;;;;;5032378;28;20376;-70
2022/07/28 00:08:51;;;;;;;5.18;1.33;;;13.30;62.50;;;;;;5031535;28;20083;-70
2022/07/28 00:11:16;;;;;;;6.00;1.33;;;13.20;62.60;;;;;;5032276;28;20022;-71
2022/07/28 00:13:42;;;;;;;6.32;1.85;;;13.20;62.90;;;;;;5032252;28;20032;-72
2022/07/28 00:16:08;;;;;;;4.55;2.08;;;13.20;62.70;;;;;;5032187;28;20083;-70
2022/07/28 00:18:33;;;;;;;3.15;1.55;;;13.10;62.70;;;;;;5030478;28;20446;-70
2022/07/28 00:21:00;;;;;;;5.55;1.88;;;13.20;62.80;;;;;;5032236;28;20033;-70
2022/07/28 00:23:26;;;;;;;3.97;1.65;;;13.20;63.00;;;;;;5031992;28;20574;-70
2022/07/28 00:25:51;;;;;;;4.55;1.75;;;13.10;63.10;;;;;;5032039;28;20109;-70
2022/07/28 00:28:17;;;;;;;4.60;1.42;;;13.10;63.10;;;;;;5031223;28;20055;-70
2022/07/28 00:30:42;;;;;;;4.55;1.42;;;13.00;63.50;;;;;;5031904;28;20033;-70
2022/07/28 00:33:08;;;;;;;6.85;2.00;;;13.00;63.60;;;;;;5031851;28;20025;-70
2022/07/28 00:35:34;;;;;;;3.05;1.45;;;13.10;63.30;;;;;;5030357;28;20021;-71
2022/07/28 00:38:00;;;;;;;7.07;1.45;;;13.00;63.30;;;;;;5031238;28;20021;-69
2022/07/28 00:41:09;;;;;;;6.13;1.75;;;13.00;63.20;;;;;;5031907;28;20033;-71
2022/07/28 00:43:11;;;;;;;7.75;1.77;;;13.00;63.10;;;;;;5031824;28;20033;-72
2022/07/28 00:45:37;;;;;;;3.55;1.23;;;12.90;63.60;;;;;;5014332;28;20033;-71
2022/07/28 00:48:02;;;;;;;4.97;1.75;;;12.90;63.70;;;;;;5031187;28;20093;-71
2022/07/28 00:50:29;;;;;;;4.28;1.50;;;12.80;64.00;;;;;;5031584;28;20033;-72
2022/07/28 00:52:55;;;;;;;3.97;1.30;;;12.80;63.80;;;;;;5031922;28;20033;-72
2022/07/28 00:55:22;;;;;;;2.38;1.35;;;12.70;64.50;;;;;;5031905;28;20408;-72
2022/07/28 00:57:47;;;;;;;4.95;1.92;;;12.70;64.60;;;;;;5013518;28;20033;-71
2022/07/28 01:00:13;;;;;;;7.32;1.52;;;12.70;65.10;;;;;;5031894;28;20229;-71
2022/07/28 01:02:39;;;;;;;5.00;1.65;;;12.70;64.90;;;;;;5031824;28;20018;-71
2022/07/28 01:05:05;;;;;;;4.30;1.63;;;12.60;65.00;;;;;;5031747;28;20028;-71
2022/07/28 01:07:42;;;;;;;2.85;1.80;;;12.70;65.00;;;;;;5031821;28;20080;-70
2022/07/28 01:10:23;;;;;;;5.35;2.05;;;12.70;64.90;;;;;;5033018;28;20022;-70
2022/07/28 01:13:01;;;;;;;6.70;2.13;;;12.70;64.40;;;;;;5033933;28;20026;-72
2022/07/28 01:15:36;;;;;;;4.40;1.67;;;12.70;64.50;;;;;;5033838;28;20061;-72
2022/07/28 01:18:16;;;;;;;9.93;2.05;;;12.50;65.20;;;;;;5033164;28;20030;-72
2022/07/28 01:21:05;;;;;;;4.28;1.83;;;12.50;65.30;;;;;;5033985;28;20026;-72
2022/07/28 01:23:30;;;;;;;3.13;1.73;;;12.40;66.00;;;;;;5032589;28;20080;-71
2022/07/28 01:26:19;;;;;;;6.78;3.78;;;12.40;65.80;;;;;;5033167;28;20026;-71
2022/07/28 01:29:39;;;;;;;5.22;1.77;;;12.40;65.80;;;;;;5032198;28;20395;-71
2022/07/28 01:32:16;;;;;;;4.20;1.80;;;12.20;65.70;;;;;;4955982;29;20497;-70
2022/07/28 01:34:49;;;;;;;2.00;1.55;;;12.20;66.10;;;;;;5017661;28;20546;-71
2022/07/28 01:37:22;;;;;;;2.70;1.90;;;12.20;66.30;;;;;;5034950;28;20030;-71
2022/07/28 01:39:52;;;;;;;3.53;1.48;;;12.10;66.60;;;;;;5035801;28;20098;-71
2022/07/28 01:42:21;;;;;;;4.57;2.22;;;12.00;66.60;;;;;;5035629;28;20022;-70
2022/07/28 01:44:49;;;;;;;3.70;1.55;;;12.00;66.60;;;;;;5035971;28;20029;-69
2022/07/28 01:47:17;;;;;;;2.65;1.60;;;12.00;67.00;;;;;;5034577;28;20034;-71
2022/07/28 01:49:44;;;;;;;5.80;1.98;;;12.00;67.10;;;;;;5034983;28;20069;-70
2022/07/28 01:52:10;;;;;;;4.07;2.00;;;12.00;67.00;;;;;;5035222;28;20025;-70
2022/07/28 01:54:39;;;;;;;3.95;1.75;;;12.00;66.80;;;;;;5035174;28;20022;-71
2022/07/28 01:57:09;;;;;;;5.78;1.90;;;11.80;67.20;;;;;;5034605;28;20032;-70
2022/07/28 01:59:38;;;;;;;4.82;1.50;;;11.90;67.40;;;;;;5034781;28;20108;-71
2022/07/28 02:02:05;;;;;;;4.65;1.70;;;11.90;67.80;;;;;;5035001;28;20033;-70
2022/07/28 02:04:35;;;;;;;4.90;1.90;;;11.90;68.00;;;;;;5034961;28;20043;-71
2022/07/28 02:07:02;;;;;;;4.20;1.65;;;11.80;67.80;;;;;;5034652;28;20030;-70
2022/07/28 02:09:29;;;;;;;9.38;2.28;;;11.70;68.10;;;;;;5034742;28;20053;-69
2022/07/28 02:11:56;;;;;;;4.85;1.40;;;11.60;68.00;;;;;;5034951;28;20507;-70
2022/07/28 02:14:24;;;;;;;4.70;1.83;;;11.50;68.60;;;;;;5034836;28;20033;-71
2022/07/28 02:17:00;;;;;;;3.55;1.50;;;11.50;68.90;;;;;;5034971;28;20033;-71
2022/07/28 02:19:27;;;;;;;3.53;1.23;;;11.50;68.80;;;;;;5034189;28;20495;-70
2022/07/28 02:21:54;;;;;;;4.80;2.05;;;11.50;68.80;;;;;;5034508;28;20044;-70
2022/07/28 02:24:25;;;;;;;4.00;1.55;;;11.40;68.90;;;;;;5034905;28;20014;-69
2022/07/28 02:27:02;;;;;;;6.30;1.83;;;11.40;69.10;;;;;;5034778;28;20096;-71
2022/07/28 02:29:32;;;;;;;4.70;1.92;;;11.40;69.30;;;;;;5034490;28;20184;-71
2022/07/28 02:32:08;;;;;;;6.78;1.80;;;11.40;69.60;;;;;;5034487;28;20045;-71
2022/07/28 02:34:37;;;;;;;4.10;1.98;;;11.30;69.70;;;;;;5033419;28;20503;-71
2022/07/28 02:37:04;;;;;;;6.50;1.98;;;11.30;70.00;;;;;;5033918;28;20037;-67
2022/07/28 02:39:41;;;;;;;3.53;1.90;;;11.30;69.80;;;;;;5034476;28;20056;-71
2022/07/28 02:42:13;;;;;;;2.35;1.55;;;11.20;70.10;;;;;;5033282;28;20032;-70
2022/07/28 02:44:41;;;;;;;5.28;2.10;;;11.20;70.40;;;;;;5034268;28;20025;-71
2022/07/28 02:47:10;;;;;;;3.25;2.05;;;11.20;70.20;;;;;;5033546;28;20029;-68
2022/07/28 02:49:37;;;;;;;4.07;2.20;;;11.10;70.50;;;;;;5033783;28;20506;-69
2022/07/28 02:52:06;;;;;;;6.90;2.03;;;11.00;70.80;;;;;;5016349;28;20029;-71
2022/07/28 02:54:34;;;;;;;3.15;1.65;;;11.00;70.80;;;;;;5033967;28;20053;-69
2022/07/28 02:57:04;;;;;;;5.25;2.20;;;11.00;71.00;;;;;;5033658;28;20108;-68
2022/07/28 02:59:30;;;;;;;6.10;2.22;;;10.90;71.30;;;;;;5034035;28;20368;-69
2022/07/28 03:01:57;;;;;;;5.97;2.05;;;11.00;71.30;;;;;;5034215;28;20029;-71
2022/07/28 03:07:08;;;;;;;69.18;35.70;;;11.00;71.20;;;;;;5033325;28;20033;-69
2022/07/28 03:09:43;;;;;;;303.35;153.70;;;11.00;71.10;;;;;;5033829;28;20443;-71
2022/07/28 03:12:09;;;;;;;67.15;31.20;;;11.00;71.00;;;;;;5033850;28;20038;-71
2022/07/28 03:14:35;;;;;;;56.25;25.52;;;11.00;70.70;;;;;;5033706;28;20117;-70
2022/07/28 03:17:00;;;;;;;29.83;13.50;;;11.00;70.50;;;;;;5033264;28;20065;-69
2022/07/28 03:19:26;;;;;;;45.85;18.45;;;11.00;70.70;;;;;;5032985;28;20049;-71
2022/07/28 03:21:52;;;;;;;115.90;48.50;;;11.00;70.90;;;;;;5015582;28;20108;-71
2022/07/28 03:24:21;;;;;;;41.35;15.65;;;11.00;71.00;;;;;;5033689;28;20113;-71
2022/07/28 03:26:54;;;;;;;10.27;3.33;;;11.10;70.80;;;;;;5033353;28;20360;-70
2022/07/28 03:29:21;;;;;;;3.92;2.08;;;11.10;70.80;;;;;;5032638;28;20372;-71
2022/07/28 03:31:47;;;;;;;4.47;2.28;;;11.00;71.00;;;;;;5033435;28;20056;-71
2022/07/28 03:34:13;;;;;;;5.18;2.25;;;11.10;70.60;;;;;;5015331;28;20026;-70
2022/07/28 03:36:44;;;;;;;3.53;2.30;;;11.00;70.80;;;;;;5014843;28;20395;-70
2022/07/28 03:39:10;;;;;;;11.40;3.13;;;11.00;71.00;;;;;;5032464;28;20040;-71
2022/07/28 03:41:38;;;;;;;6.35;2.00;;;11.20;70.80;;;;;;5033263;28;20030;-71
2022/07/28 03:44:04;;;;;;;4.85;2.05;;;11.30;70.40;;;;;;5015407;28;20021;-70
2022/07/28 03:46:31;;;;;;;8.70;2.70;;;11.30;70.40;;;;;;5032927;28;20617;-71
2022/07/28 03:48:56;;;;;;;4.43;1.98;;;11.30;70.20;;;;;;5032165;28;20021;-71
2022/07/28 03:51:24;;;;;;;7.10;2.83;;;11.40;70.20;;;;;;5032828;28;20112;-71
2022/07/28 03:53:50;;;;;;;6.72;2.30;;;11.50;70.20;;;;;;5032889;28;20032;-71
2022/07/28 03:56:15;;;;;;;3.97;2.30;;;11.70;69.90;;;;;;5032901;28;20100;-71
2022/07/28 03:58:41;;;;;;;6.90;2.75;;;11.80;69.50;;;;;;5032117;28;20087;-71
2022/07/28 04:01:07;;;;;;;4.68;1.92;;;;;;;;;;5032581;28;20505;-71
2022/07/28 04:03:33;;;;;;;5.95;2.13;;;;;;;;;;5032527;28;20096;-70
2022/07/28 04:05:59;;;;;;;7.97;2.75;;;;;;;;;;5032744;28;20028;-72
2022/07/28 04:08:25;;;;;;;5.10;2.30;;;;;;;;;;5031860;28;20018;-71
2022/07/28 04:10:52;;;;;;;6.15;1.80;;;;;;;;;;5032426;28;20041;-70
2022/07/28 04:13:19;;;;;;;7.43;2.15;;;;;;;;;;5032508;28;20026;-71
2022/07/28 04:15:45;;;;;;;3.95;1.58;;;;;;;;;;5032360;28;20026;-70
2022/07/28 04:18:11;;;;;;;4.97;2.30;;;;;;;;;;5031483;28;20041;-70
2022/07/28 04:20:37;;;;;;;4.30;1.95;;;;;;;;;;5032140;28;20053;-70
2022/07/28 04:23:03;;;;;;;4.75;2.15;;;;;;;;;;5032346;28;20163;-70
2022/07/28 04:25:29;;;;;;;5.10;2.42;;;;;;;;;;5032441;28;20403;-70
2022/07/28 04:27:55;;;;;;;7.22;1.95;;;;;;;;;;5031495;28;20022;-71
2022/07/28 04:30:23;;;;;;;3.50;1.85;;;;;;;;;;5032582;28;20045;-70
2022/07/28 04:32:50;;;;;;;3.88;1.75;;;;;;;;;;5032040;28;20108;-71
2022/07/28 04:35:16;;;;;;;6.20;2.22;;;;;;;;;;5031099;28;20036;-71
2022/07/28 04:37:43;;;;;;;3.70;2.15;;;;;;;;;;5031295;28;20053;-71
2022/07/28 04:40:10;;;;;;;3.85;1.73;;;;;;;;;;5031960;28;20025;-71
2022/07/28 04:42:37;;;;;;;5.10;2.20;;;;;;;;;;5014388;28;20447;-71
2022/07/28 04:45:04;;;;;;;3.65;2.05;;;;;;;;;;5032124;28;20079;-70
2022/07/28 04:47:30;;;;;;;7.43;2.30;;;;;;;;;;5013554;28;20025;-72
2022/07/28 04:49:56;;;;;;;7.53;2.50;;;;;;;;;;5031942;28;20025;-72
2022/07/28 04:52:22;;;;;;;6.63;2.00;;;;;;;;;;5032026;28;20025;-71
2022/07/28 04:54:49;;;;;;;3.50;2.03;;;;;;;;;;5031736;28;20096;-71
2022/07/28 04:57:15;;;;;;;6.63;2.47;;;;;;;;;;5031172;28;20029;-69
2022/07/28 04:59:41;;;;;;;4.65;2.10;;;;;;;;;;5031372;28;20025;-71
2022/07/28 05:02:07;;;;;;;7.57;2.33;;;;;;;;;;5031558;28;20071;-72
2022/07/28 05:04:33;;;;;;;5.25;2.47;;;26.30;30.10;;;;;;5013425;28;20076;-71
2022/07/28 05:06:59;;;;;;;7.13;2.25;;;25.90;30.90;;;;;;5031272;28;20017;-69
2022/07/28 05:09:24;;;;;;;11.57;2.92;;;25.70;31.60;;;;;;5030894;28;20026;-70
2022/07/28 05:11:50;;;;;;;3.15;2.05;;;26.40;31.10;;;;;;5031692;28;20033;-70
2022/07/28 05:14:16;;;;;;;7.30;2.60;;;26.70;30.40;;;;;;5031424;28;20025;-71
2022/07/28 05:16:43;;;;;;;3.42;1.90;;;27.60;29.30;;;;;;5031263;28;20483;-71
2022/07/28 05:19:09;;;;;;;3.67;1.80;;;28.60;28.30;;;;;;5030653;28;20107;-71
2022/07/28 05:21:35;;;;;;;5.22;2.40;;;29.40;26.70;;;;;;5014001;28;20050;-71
2022/07/28 05:24:00;;;;;;;5.85;2.05;;;29.40;26.30;;;;;;5031345;28;20115;-71
2022/07/28 05:26:27;;;;;;;11.57;2.70;;;29.20;26.70;;;;;;5031440;28;20033;-72
2022/07/28 05:28:53;;;;;;;7.00;2.17;;;27.30;28.50;;;;;;5030573;28;20022;-71
2022/07/28 05:31:19;;;;;;;6.10;2.25;;;26.10;31.20;;;;;;5031455;28;20105;-72
2022/07/28 05:33:45;;;;;;;5.55;2.63;;;25.90;30.60;;;;;;5031358;28;20044;-72
2022/07/28 05:36:10;;;;;;;4.25;2.05;;;26.40;30.60;;;;;;5029820;28;20121;-70
2022/07/28 05:38:36;;;;;;;6.13;2.25;;;26.70;29.70;;;;;;5030451;28;20430;-71
2022/07/28 05:41:02;;;;;;;3.75;1.83;;;25.80;30.90;;;;;;5031218;28;20116;-70
2022/07/28 05:43:28;;;;;;;6.95;2.35;;;;;;;;;;5031610;28;20021;-71
2022/07/28 05:45:54;;;;;;;4.00;1.90;;;27.10;29.90;;;;;;5031376;28;20025;-72
2022/07/28 05:48:21;;;;;;;5.68;2.35;;;27.40;29.10;;;;;;5030504;28;20046;-72
2022/07/28 05:50:48;;;;;;;4.45;2.25;;;26.90;29.10;;;;;;5054010;22;20046;-69
2022/07/28 05:53:14;;;;;;;2.92;1.75;;;26.00;31.10;;;;;;5031289;28;20056;-68
2022/07/28 05:55:40;;;;;;;8.05;2.55;;;;;;;;;;5031043;28;20045;-69
2022/07/28 05:58:06;;;;;;;6.90;2.85;;;;;;;;;;5030471;28;20025;-68
2022/07/28 06:00:32;;;;;;;9.18;3.03;;;23.10;35.70;;;;;;5030869;28;20575;-69
2022/07/28 06:03:01;;;;;;;7.70;2.72;;;23.10;35.80;;;;;;5030915;28;20026;-68
2022/07/28 06:05:29;;;;;;;9.90;2.95;;;23.60;35.30;;;;;;5031089;28;20036;-68
2022/07/28 06:07:55;;;;;;;13.07;2.80;;;24.40;34.20;;;;;;5030365;28;20499;-69
2022/07/28 06:10:24;;;;;;;4.65;2.20;;;25.50;32.60;;;;;;5030972;28;20045;-69
2022/07/28 06:12:52;;;;;;;6.05;2.80;;;25.70;31.90;;;;;;5030793;28;20056;-69
2022/07/28 06:15:26;;;;;;;11.23;2.55;;;26.00;31.30;;;;;;5030742;28;20444;-69
2022/07/28 06:17:54;;;;;;;7.68;2.60;;;25.40;31.80;;;;;;5032576;28;20033;-68
2022/07/28 06:20:22;;;;;;;4.90;2.63;;;24.50;33.40;;;;;;5016776;28;20025;-69
2022/07/28 06:22:52;;;;;;;12.70;2.70;;;;;;;;;;5034710;28;20547;-69
2022/07/28 06:25:18;;;;;;;7.45;3.00;;;27.10;30.50;;;;;;5034466;28;20491;-69
2022/07/28 06:27:49;;;;;;;11.45;2.90;;;27.00;30.00;;;;;;5033719;28;20040;-68
2022/07/28 06:30:16;;;;;;;7.28;2.72;;;26.30;31.00;;;;;;5034357;28;20032;-68
2022/07/28 06:32:42;;;;;;;4.85;2.30;;;27.00;29.90;;;;;;5034414;28;20075;-69
2022/07/28 06:35:10;;;;;;;7.65;2.97;;;26.70;30.60;;;;;;5033283;28;20468;-69
2022/07/28 06:37:37;;;;;;;8.98;2.92;;;;;;;;;;5033403;28;20387;-69
2022/07/28 06:40:03;;;;;;;8.15;2.90;;;25.90;31.80;;;;;;5033834;28;20384;-69
2022/07/28 06:42:28;;;;;;;5.93;2.55;;;25.60;32.00;;;;;;5034145;28;20679;-68
2022/07/28 06:44:54;;;;;;;4.28;2.58;;;24.60;33.10;;;;;;5034136;28;20028;-71
2022/07/28 06:47:20;;;;;;;7.75;3.33;;;24.60;33.20;;;;;;5033169;28;20025;-68
2022/07/28 06:49:45;;;;;;;10.52;3.53;;;23.30;35.20;;;;;;5033938;28;20065;-70
2022/07/28 06:52:11;;;;;;;9.18;3.00;;;;;;;;;;5034262;28;20033;-69
2022/07/28 06:54:38;;;;;;;8.88;2.90;;;;;;;;;;5033876;28;20053;-69
2022/07/28 06:57:04;;;;;;;8.18;3.25;;;23.90;34.60;;;;;;5033239;28;20040;-69
2022/07/28 06:59:29;;;;;;;9.77;3.30;;;24.30;34.00;;;;;;5033679;28;20025;-68
2022/07/28 07:02:00;;;;;;;14.68;3.60;;;24.30;34.20;;;;;;5033813;28;20400;-67
2022/07/28 07:04:26;;;;;;;11.13;3.47;;;23.70;35.00;;;;;;5016426;28;20026;-67
2022/07/28 07:06:52;;;;;;;15.23;3.47;;;24.60;33.60;;;;;;5033987;28;20428;-69
2022/07/28 07:09:18;;;;;;;7.40;3.92;;;25.50;32.60;;;;;;5032866;28;20060;-68
2022/07/28 07:11:43;;;;;;;12.23;4.30;;;25.90;31.50;;;;;;5016960;28;20162;-69
2022/07/28 07:14:09;;;;;;;14.60;4.93;;;25.90;32.00;;;;;;5033714;28;20026;-69
2022/07/28 07:16:34;;;;;;;12.85;4.90;;;26.90;30.50;;;;;;5033468;28;20131;-68
2022/07/28 07:19:00;;;;;;;10.82;5.40;;;;;;;;;;5032694;28;20048;-68
2022/07/28 07:21:26;;;;;;;14.10;5.95;;;;;;;;;;5015861;28;20024;-69
2022/07/28 07:23:52;;;;;;;18.45;6.75;;;;;;;;;;5033493;28;20026;-68
2022/07/28 07:26:19;;;;;;;17.55;7.78;;;;;;;;;;5033419;28;20030;-70
2022/07/28 07:28:45;;;;;;;18.88;7.40;;;;;;;;;;5031789;28;20025;-69
2022/07/28 07:31:11;;;;;;;14.68;7.72;;;;;;;;;;5033256;28;20033;-69
2022/07/28 07:33:37;;;;;;;20.70;8.43;;;26.50;31.20;;;;;;5015797;28;20026;-70
2022/07/28 07:36:02;;;;;;;23.20;7.65;;;26.80;30.40;;;;;;5031492;28;20029;-69
2022/07/28 07:38:28;;;;;;;17.27;7.20;;;26.80;31.20;;;;;;5032376;28;20083;-67
2022/07/28 07:40:54;;;;;;;20.92;8.00;;;;;;;;;;5033134;28;20026;-68
2022/07/28 07:43:20;;;;;;;26.00;9.32;;;;;;;;;;5033148;28;20538;-68
2022/07/28 07:45:46;;;;;;;27.30;11.70;;;;;;;;;;5032766;28;20056;-69
2022/07/28 07:48:11;;;;;;;20.27;10.38;;;28.50;27.20;;;;;;5014603;28;20072;-68
2022/07/28 07:50:37;;;;;;;28.45;14.45;;;28.20;28.00;;;;;;5032983;28;20499;-68
2022/07/28 07:53:03;;;;;;;21.48;11.85;;;29.00;26.80;;;;;;5015238;28;20079;-68
2022/07/28 07:55:29;;;;;;;26.58;15.70;;;29.00;27.10;;;;;;5032853;28;20076;-68
2022/07/28 07:57:55;;;;;;;44.75;24.75;;;;;;;;;;5031962;28;20026;-69
2022/07/28 08:00:21;;;;;;;51.58;28.50;;;30.00;26.70;;;;;;5032407;28;20390;-69
2022/07/28 08:02:47;;;;;;;44.85;26.13;;;30.90;25.20;;;;;;5015004;28;20017;-68
2022/07/28 08:05:13;;;;;;;27.33;18.88;;;29.80;26.00;;;;;;5032549;28;20049;-68
2022/07/28 08:07:39;;;;;;;26.90;14.07;;;30.20;25.20;;;;;;5032074;28;20029;-69
2022/07/28 08:10:05;;;;;;;17.30;10.38;;;;;;;;;;5032558;28;20105;-69
2022/07/28 08:12:31;;;;;;;15.73;7.82;;;;;;;;;;5032690;28;20021;-68
2022/07/28 08:14:57;;;;;;;17.35;8.93;;;;;;;;;;5014597;28;20029;-69
2022/07/28 08:17:23;;;;;;;12.73;6.63;;;;;;;;;;5031516;28;20394;-69
2022/07/28 08:19:50;;;;;;;11.13;5.50;;;;;;;;;;5032110;28;20061;-68
2022/07/28 08:22:16;;;;;;;12.88;5.40;;;;;;;;;;5032250;28;20026;-68
2022/07/28 08:24:42;;;;;;;13.00;4.70;;;;;;;;;;5014633;28;20025;-69
2022/07/28 08:27:08;;;;;;;18.15;3.70;;;29.80;25.80;;;;;;5031528;28;20422;-69
2022/07/28 08:29:34;;;;;;;6.43;2.50;;;30.40;24.90;;;;;;5032312;28;20087;-69
2022/07/28 08:32:02;;;;;;;5.20;2.20;;;29.20;26.10;;;;;;5032109;28;20037;-68
2022/07/28 08:34:29;;;;;;;5.82;2.30;;;27.50;27.80;;;;;;5031074;28;20068;-69
2022/07/28 08:36:54;;;;;;;7.53;2.63;;;28.40;27.00;;;;;;5032281;28;20029;-68
2022/07/28 08:39:20;;;;;;;6.75;2.17;;;28.20;27.20;;;;;;5030771;28;20112;-68
2022/07/28 08:41:53;;;;;;;8.38;2.33;;;29.70;25.70;;;;;;5031885;28;20022;-69
2022/07/28 08:44:29;;;;;;;5.47;2.30;;;30.80;24.00;;;;;;5032004;28;20021;-69
2022/07/28 08:46:55;;;;;;;3.25;1.77;;;;;;;;;;5032038;28;20013;-70
2022/07/28 08:49:21;;;;;;;11.30;2.42;;;28.90;25.40;;;;;;5013499;28;20401;-68
2022/07/28 08:51:48;;;;;;;4.30;1.48;;;27.90;26.50;;;;;;5031861;28;20029;-68
2022/07/28 08:54:25;;;;;;;6.57;1.98;;;28.00;26.30;;;;;;5032016;28;20021;-69
2022/07/28 08:56:51;;;;;;;9.80;1.98;;;28.60;25.50;;;;;;5014163;28;20029;-68
2022/07/28 08:59:19;;;;;;;2.92;1.55;;;29.00;26.10;;;;;;5031218;28;20367;-68
2022/07/28 09:01:45;;;;;;;5.35;1.80;;;;;;;;;;5031963;28;20025;-68
2022/07/28 09:04:11;;;;;;;4.05;1.73;;;30.60;23.90;;;;;;5031809;28;20060;-68
2022/07/28 09:06:40;;;;;;;6.38;1.88;;;31.60;22.50;;;;;;5031739;28;20053;-68
2022/07/28 09:09:09;;;;;;;10.70;4.65;;;31.20;22.50;;;;;;5031597;28;20104;-68
2022/07/28 09:11:36;;;;;;;5.97;1.90;;;28.90;25.20;;;;;;5032982;28;20060;-68
2022/07/28 09:14:02;;;;;;;6.28;1.80;;;28.30;26.20;;;;;;5033071;28;20026;-69
2022/07/28 09:16:28;;;;;;;5.43;2.00;;;28.40;26.10;;;;;;5031425;28;20025;-70
2022/07/28 09:18:54;;;;;;;5.60;2.28;;;28.40;26.80;;;;;;5030955;28;20099;-69
2022/07/28 09:21:20;;;;;;;9.60;2.60;;;29.30;26.20;;;;;;5013886;28;20148;-68
2022/07/28 09:23:47;;;;;;;7.03;2.50;;;29.30;25.40;;;;;;5031492;28;20026;-68
2022/07/28 09:26:14;;;;;;;7.13;2.75;;;28.70;26.00;;;;;;5031395;28;20021;-68
2022/07/28 09:28:47;;;;;;;6.38;2.20;;;28.10;27.00;;;;;;5030717;28;20108;-68
2022/07/28 09:31:13;;;;;;;3.42;2.00;;;29.00;25.70;;;;;;5031508;28;20411;-67
2022/07/28 09:33:38;;;;;;;4.20;2.20;;;28.90;26.40;;;;;;5031463;28;20025;-67
2022/07/28 09:36:13;;;;;;;6.40;2.58;;;29.00;25.80;;;;;;5029528;28;20030;-67
2022/07/28 09:38:40;;;;;;;8.82;2.63;;;29.40;25.30;;;;;;5012996;28;20120;-68
2022/07/28 09:41:06;;;;;;;5.35;2.67;;;29.00;26.10;;;;;;5013549;28;20415;-68
2022/07/28 09:43:32;;;;;;;6.82;3.00;;;28.50;26.30;;;;;;5031418;28;20571;-68
2022/07/28 09:46:07;;;;;;;6.95;2.28;;;28.00;27.90;;;;;;5031207;28;20032;-69
2022/07/28 09:48:48;;;;;;;6.13;2.53;;;28.40;26.70;;;;;;5030487;28;20030;-69
2022/07/28 09:51:22;;;;;;;9.80;2.78;;;28.10;27.50;;;;;;5032359;28;20057;-68
2022/07/28 09:53:48;;;;;;;8.02;3.47;;;28.10;27.40;;;;;;5035429;28;20029;-68
2022/07/28 09:56:14;;;;;;;5.50;2.80;;;28.20;28.10;;;;;;5035376;28;20399;-69
2022/07/28 09:58:40;;;;;;;4.03;2.10;;;29.20;27.00;;;;;;5016713;28;20028;-68
2022/07/28 10:01:09;;;;;;;8.57;2.00;;;29.50;24.90;;;;;;5035995;28;20026;-69
2022/07/28 10:03:36;;;;;;;6.18;1.92;;;29.00;25.60;;;;;;5038174;28;20022;-69
2022/07/28 10:06:10;;;;;;;4.35;2.30;;;28.50;26.00;;;;;;5038397;28;20085;-69
2022/07/28 10:08:41;;;;;;;5.15;2.15;;;29.00;26.40;;;;;;5018943;28;20478;-70
2022/07/28 10:11:07;;;;;;;;;;;29.30;25.20;;;;;;5038404;28;20104;-70
2022/07/28 10:13:32;;;;;;;2.33;1.40;;;27.70;26.10;;;;;;5038243;28;20371;-69
2022/07/28 10:16:11;;;;;;;5.60;2.30;;;26.70;27.20;;;;;;5038219;28;20033;-69
2022/07/28 10:18:39;;;;;;;6.53;2.08;;;26.60;28.80;;;;;;5037978;28;20025;-70
2022/07/28 10:21:12;;;;;;;5.72;2.22;;;27.10;28.50;;;;;;5035533;28;20483;-69
2022/07/28 10:23:38;;;;;;;12.07;2.17;;;27.70;27.90;;;;;;5035827;28;20024;-69
2022/07/28 10:26:10;;;;;;;5.55;2.55;;;27.90;27.50;;;;;;5035013;28;20479;-69
2022/07/28 10:28:38;;;;;;;6.65;2.50;;;28.20;27.60;;;;;;5034068;28;20018;-68
2022/07/28 10:31:08;;;;;;;4.07;2.13;;;28.30;27.40;;;;;;5034612;28;20034;-69
2022/07/28 10:33:37;;;;;;;4.00;1.38;;;27.80;26.90;;;;;;5034546;28;20120;-69
2022/07/28 10:36:04;;;;;;;3.95;1.23;;;27.30;27.40;;;;;;5032601;28;20510;-68
2022/07/28 10:38:34;;;;;;;2.20;1.02;;;26.60;27.20;;;;;;4999584;28;20426;-68
2022/07/28 10:41:07;;;;;;;4.70;1.17;;;25.90;27.90;;;;;;5035029;28;20246;-69
2022/07/28 10:43:34;;;;;;;2.92;1.40;;;24.70;29.30;;;;;;5017602;28;20021;-68
2022/07/28 10:46:02;;;;;;;5.95;1.63;;;24.60;29.60;;;;;;5034305;28;20044;-68
2022/07/28 10:48:28;;;;;;;2.58;0.90;;;24.10;30.20;;;;;;5033495;28;20022;-68
2022/07/28 10:50:55;;;;;;;4.63;1.30;;;23.60;31.40;;;;;;5034302;28;20048;-69
2022/07/28 10:53:42;;;;;;;3.75;0.98;;;23.70;32.00;;;;;;5034287;28;20022;-69
2022/07/28 10:56:42;;;;;;;4.22;1.58;;;24.20;32.40;;;;;;5034174;28;20028;-69
2022/07/28 10:59:11;;;;;;;8.43;1.80;;;24.40;30.60;;;;;;5018944;28;20128;-69
2022/07/28 11:01:39;;;;;;;5.88;0.93;;;24.50;30.70;;;;;;5033968;28;20033;-68
2022/07/28 11:04:06;;;;;;;6.45;1.33;;;24.20;30.90;;;;;;5033169;28;20028;-70
2022/07/28 11:06:38;;;;;;;2.67;1.13;;;23.80;31.30;;;;;;5033968;28;20017;-68
2022/07/28 11:09:16;;;;;;;5.38;1.33;;;23.60;31.80;;;;;;5033276;28;20025;-70
2022/07/28 11:11:43;;;;;;;4.53;1.10;;;23.90;32.00;;;;;;5034041;28;20029;-68
2022/07/28 11:14:28;;;;;;;5.15;1.10;;;23.90;31.60;;;;;;5033808;28;20498;-68
2022/07/28 11:17:00;;;;;;;8.35;1.33;;;24.10;31.70;;;;;;5015831;28;20100;-69
2022/07/28 11:19:29;;;;;;;4.57;1.05;;;24.40;31.20;;;;;;5033164;28;20506;-68
2022/07/28 11:22:17;;;;;;;4.50;1.08;;;24.40;30.30;;;;;;5033306;28;20064;-68
2022/07/28 11:27:42;;;;;;;3.00;1.23;;;24.00;30.20;;;;;;5032728;28;20117;-69
2022/07/28 11:30:38;;;;;;;4.55;1.17;;;23.80;30.40;;;;;;5033292;28;20049;-68
2022/07/28 11:33:06;;;;;;;4.35;1.50;;;24.00;31.20;;;;;;5032902;28;20021;-70
2022/07/28 11:35:37;;;;;;;3.80;1.05;;;24.00;30.60;;;;;;5032218;28;20480;-68
2022/07/28 11:38:03;;;;;;;4.85;1.13;;;24.00;30.20;;;;;;5032367;28;20480;-68
2022/07/28 11:40:42;;;;;;;3.83;1.40;;;24.20;31.20;;;;;;5015263;28;20028;-70
2022/07/28 11:43:20;;;;;;;4.65;1.30;;;24.10;30.20;;;;;;5033319;28;20034;-70
2022/07/28 11:45:50;;;;;;;7.30;1.58;;;24.00;30.30;;;;;;5033098;28;20029;-68
2022/07/28 11:48:20;;;;;;;3.92;1.10;;;24.00;30.40;;;;;;5032289;28;20027;-68
2022/07/28 11:51:11;;;;;;;5.93;1.48;;;24.10;31.00;;;;;;5046746;22;20045;-69
2022/07/28 11:53:37;;;;;;;6.78;1.30;;;24.10;31.20;;;;;;5032364;28;20056;-69
2022/07/28 11:56:04;;;;;;;3.88;1.30;;;23.60;31.80;;;;;;5031728;28;20025;-68
2022/07/28 11:58:30;;;;;;;6.30;1.30;;;23.60;32.00;;;;;;5031912;28;20025;-69
2022/07/28 12:01:13;;;;;;;6.45;1.40;;;23.80;31.90;;;;;;5032346;28;20397;-69
2022/07/28 12:03:42;;;;;;;3.55;1.20;;;24.00;31.50;;;;;;5032826;28;20124;-69
2022/07/28 12:06:09;;;;;;;4.35;1.27;;;24.00;31.30;;;;;;5014820;28;20471;-68
2022/07/28 12:08:57;;;;;;;7.20;1.40;;;24.00;31.30;;;;;;5031831;28;20474;-68
2022/07/28 12:11:24;;;;;;;7.97;1.60;;;24.10;31.20;;;;;;5032168;28;20099;-70
2022/07/28 12:14:04;;;;;;;6.00;1.95;;;24.20;30.80;;;;;;5032791;28;20029;-70
2022/07/28 12:16:31;;;;;;;6.70;1.67;;;24.20;30.70;;;;;;5015057;28;20423;-70
2022/07/28 12:18:59;;;;;;;2.70;1.48;;;24.10;30.80;;;;;;5031679;28;20030;-68
2022/07/28 12:21:46;;;;;;;4.53;1.45;;;24.00;30.70;;;;;;5014508;28;20525;-69
2022/07/28 12:24:16;;;;;;;5.82;1.60;;;24.00;30.70;;;;;;5032190;28;20032;-69
2022/07/28 12:26:43;;;;;;;6.75;1.50;;;24.20;30.30;;;;;;5032239;28;20028;-68
2022/07/28 12:29:13;;;;;;;4.85;1.65;;;24.30;30.40;;;;;;5031579;28;20033;-69
2022/07/28 12:32:08;;;;;;;6.65;1.48;;;24.10;30.40;;;;;;5014418;28;20030;-70
2022/07/28 12:34:35;;;;;;;4.13;1.35;;;24.20;30.40;;;;;;5030823;28;20028;-70
2022/07/28 12:37:02;;;;;;;3.85;1.35;;;24.30;30.70;;;;;;5032009;28;20037;-70
2022/07/28 12:39:31;;;;;;;3.10;1.08;;;24.40;30.30;;;;;;5032095;28;20030;-69
2022/07/28 12:42:08;;;;;;;6.43;1.50;;;24.50;30.90;;;;;;5032020;28;20079;-72
2022/07/28 12:44:40;;;;;;;6.57;1.35;;;24.70;29.90;;;;;;5014039;28;20486;-68
2022/07/28 12:47:06;;;;;;;;;;;24.70;30.10;;;;;;5031641;28;20080;-69
2022/07/28 12:49:34;;;;;;;3.80;1.10;;;24.90;30.50;;;;;;5014178;28;19905;-69
2022/07/28 12:52:14;;;;;;;1.95;1.05;;;25.00;29.20;;;;;;5031671;28;20121;-70
2022/07/28 12:54:40;;;;;;;5.85;1.30;;;25.20;30.10;;;;;;5031665;28;20091;-69
2022/07/28 12:57:06;;;;;;;3.65;1.52;;;25.10;28.80;;;;;;5030814;28;20033;-67
2022/07/28 12:59:33;;;;;;;3.03;1.42;;;25.10;29.00;;;;;;5031859;28;20029;-70
2022/07/28 13:02:01;;;;;;;9.73;1.42;;;25.00;29.10;;;;;;5031524;28;20497;-67
2022/07/28 13:04:47;;;;;;;3.67;1.40;;;24.90;29.60;;;;;;5031961;28;20412;-69
2022/07/28 13:07:18;;;;;;;3.47;1.20;;;24.90;29.60;;;;;;5012940;28;20022;-69
2022/07/28 13:09:59;;;;;;;5.25;1.73;;;24.80;29.70;;;;;;5031582;28;20037;-70
2022/07/28 13:12:25;;;;;;;5.03;1.63;;;24.70;28.60;;;;;;5031834;28;20028;-68
2022/07/28 13:14:56;;;;;;;4.75;1.13;;;24.50;29.30;;;;;;5031500;28;20264;-70
2022/07/28 13:17:25;;;;;;;9.07;1.75;;;24.60;29.20;;;;;;5031233;28;20499;-69